createdAt,value
2019-05-18T00:01:42.136Z,16.20
2019-05-18T00:04:09.155Z,15.67
2019-05-18T00:06:36.230Z,15.73
2019-05-18T00:09:05.038Z,15.43
2019-05-18T00:11:32.217Z,15.77
2019-05-18T00:13:59.253Z,16.50
2019-05-18T00:16:37.775Z,15.97
2019-05-18T00:19:04.908Z,15.80
2019-05-18T00:21:32.028Z,17.70
2019-05-18T00:24:13.080Z,16.33
2019-05-18T00:26:40.239Z,16.70
2019-05-18T00:29:08.068Z,17.70
2019-05-18T00:31:35.430Z,15.93
2019-05-18T00:34:02.547Z,17.07
2019-05-18T00:36:29.593Z,16.83
2019-05-18T00:38:56.657Z,16.93
2019-05-18T00:41:23.740Z,17.70
2019-05-18T00:43:50.863Z,18.80
2019-05-18T00:46:17.965Z,16.30
2019-05-18T00:48:45.022Z,18.03
2019-05-18T00:51:12.051Z,16.53
2019-05-18T00:53:39.084Z,16.57
2019-05-18T00:56:06.248Z,18.53
2019-05-18T00:58:33.290Z,18.17
2019-05-18T01:01:00.367Z,18.07
2019-05-18T01:03:27.442Z,18.37
2019-05-18T01:05:54.454Z,18.03
2019-05-18T01:08:21.493Z,16.93
2019-05-18T01:10:48.565Z,18.13
2019-05-18T01:13:15.606Z,17.97
2019-05-18T01:15:42.662Z,17.17
2019-05-18T01:18:10.074Z,18.07
2019-05-18T01:20:37.350Z,17.97
2019-05-18T01:23:04.464Z,16.90
2019-05-18T01:25:31.607Z,17.27
2019-05-18T01:27:59.385Z,19.07
2019-05-18T01:30:27.291Z,17.60
2019-05-18T01:32:54.774Z,17.73
2019-05-18T01:35:21.845Z,18.77
2019-05-18T01:37:48.950Z,17.73
2019-05-18T01:40:16.230Z,17.80
2019-05-18T01:42:43.284Z,18.97
2019-05-18T01:45:17.037Z,18.77
2019-05-18T01:47:39.671Z,19.03
2019-05-18T01:50:07.038Z,18.27
2019-05-18T01:52:34.080Z,18.60
2019-05-18T01:55:01.112Z,19.17
2019-05-18T01:57:28.180Z,19.00
2019-05-18T01:59:55.233Z,18.30
2019-05-18T02:02:22.318Z,18.47
2019-05-18T02:04:49.371Z,18.67
2019-05-18T02:07:16.467Z,17.47
2019-05-18T02:09:43.879Z,18.43
2019-05-18T02:12:10.919Z,19.40
2019-05-18T02:14:37.970Z,19.10
2019-05-18T02:17:05.018Z,19.63
2019-05-18T02:19:32.057Z,19.40
2019-05-18T02:21:59.142Z,19.37
2019-05-18T02:24:26.235Z,19.67
2019-05-18T02:26:53.329Z,19.70
2019-05-18T02:29:20.388Z,20.03
2019-05-18T02:31:47.438Z,20.47
2019-05-18T02:34:14.531Z,22.37
2019-05-18T02:36:41.588Z,21.30
2019-05-18T02:39:09.625Z,20.70
2019-05-18T02:41:36.652Z,20.60
2019-05-18T02:44:04.340Z,21.87
2019-05-18T02:46:31.372Z,22.37
2019-05-18T02:48:59.426Z,22.07
2019-05-18T02:51:26.546Z,22.30
2019-05-18T02:53:53.575Z,21.33
2019-05-18T02:56:20.617Z,21.63
2019-05-18T02:58:48.518Z,22.67
2019-05-18T03:01:15.557Z,23.23
2019-05-18T03:03:42.684Z,22.17
2019-05-18T03:06:10.378Z,23.87
2019-05-18T03:08:37.505Z,23.43
2019-05-18T03:11:24.696Z,23.70
2019-05-18T03:13:52.186Z,24.57
2019-05-18T03:16:36.168Z,23.83
2019-05-18T03:19:08.101Z,24.20
2019-05-18T03:21:33.143Z,24.07
2019-05-18T03:24:00.203Z,24.60
2019-05-18T03:26:27.299Z,22.97
2019-05-18T03:28:54.303Z,23.43
2019-05-18T03:31:21.378Z,24.63
2019-05-18T03:33:48.429Z,23.33
2019-05-18T03:36:15.460Z,24.40
2019-05-18T03:38:42.523Z,25.03
2019-05-18T03:41:09.609Z,24.57
2019-05-18T03:43:36.681Z,24.20
2019-05-18T03:46:03.817Z,24.40
2019-05-18T03:48:30.848Z,23.43
2019-05-18T03:50:57.910Z,24.80
2019-05-18T03:53:25.028Z,25.83
2019-05-18T03:55:52.145Z,25.80
2019-05-18T03:58:19.181Z,24.63
2019-05-18T04:00:49.393Z,24.30
2019-05-18T04:03:16.467Z,24.23
2019-05-18T04:05:43.507Z,24.47
2019-05-18T04:08:10.598Z,25.17
2019-05-18T04:10:37.642Z,25.00
2019-05-18T04:13:04.675Z,24.50
2019-05-18T04:15:31.779Z,25.60
2019-05-18T04:17:58.840Z,25.03
2019-05-18T04:20:25.920Z,24.53
2019-05-18T04:22:52.996Z,23.10
2019-05-18T04:25:20.113Z,26.70
2019-05-18T04:27:47.167Z,25.00
2019-05-18T04:30:14.550Z,26.00
2019-05-18T04:32:41.607Z,25.70
2019-05-18T04:35:08.855Z,24.40
2019-05-18T04:37:35.923Z,25.03
2019-05-18T04:40:03.223Z,24.50
2019-05-18T04:42:30.253Z,25.37
2019-05-18T04:44:57.324Z,22.80
2019-05-18T04:47:24.369Z,23.17
2019-05-18T04:50:04.534Z,22.77
2019-05-18T04:52:20.503Z,24.63
2019-05-18T04:54:47.543Z,24.37
2019-05-18T04:57:14.617Z,23.73
2019-05-18T04:59:41.655Z,23.40
2019-05-18T05:02:08.737Z,23.43
2019-05-18T05:04:35.811Z,22.70
2019-05-18T05:07:02.959Z,23.63
2019-05-18T05:09:30.027Z,22.63
2019-05-18T05:11:59.395Z,22.53
2019-05-18T05:14:26.458Z,24.27
2019-05-18T05:16:53.861Z,24.00
2019-05-18T05:19:20.899Z,23.80
2019-05-18T05:21:49.182Z,22.27
2019-05-18T05:24:16.250Z,24.57
2019-05-18T05:26:43.381Z,23.60
2019-05-18T05:29:10.489Z,21.13
2019-05-18T05:31:37.531Z,22.80
2019-05-18T05:34:04.585Z,21.90
2019-05-18T05:36:31.666Z,20.47
2019-05-18T05:38:58.693Z,19.70
2019-05-18T05:41:25.718Z,20.57
2019-05-18T05:43:52.785Z,20.47
2019-05-18T05:46:19.798Z,19.53
2019-05-18T05:48:46.839Z,21.23
2019-05-18T05:51:13.919Z,17.03
2019-05-18T05:53:40.949Z,17.93
2019-05-18T05:56:08.008Z,19.80
2019-05-18T05:58:35.090Z,17.60
2019-05-18T06:01:02.118Z,18.27
2019-05-18T06:03:29.164Z,20.20
2019-05-18T06:05:56.193Z,17.77
2019-05-18T06:08:23.252Z,19.60
2019-05-18T06:10:50.305Z,19.10
2019-05-18T06:13:17.360Z,19.90
2019-05-18T06:15:44.402Z,18.83
2019-05-18T06:18:11.471Z,19.93
2019-05-18T06:20:50.453Z,20.40
2019-05-18T06:23:07.512Z,18.73
2019-05-18T06:25:34.677Z,18.47
2019-05-18T06:28:01.965Z,17.77
2019-05-18T06:30:29.044Z,18.17
2019-05-18T06:32:56.064Z,19.10
2019-05-18T06:35:23.157Z,16.77
2019-05-18T06:37:50.216Z,17.37
2019-05-18T06:40:17.263Z,16.03
2019-05-18T06:42:44.333Z,17.03
2019-05-18T06:45:11.713Z,17.73
2019-05-18T06:47:38.739Z,17.10
2019-05-18T06:50:06.314Z,18.23
2019-05-18T06:52:33.384Z,18.43
2019-05-18T06:55:00.399Z,14.83
2019-05-18T06:57:28.411Z,17.40
2019-05-18T06:59:55.491Z,16.17
2019-05-18T07:02:22.510Z,18.00
2019-05-18T07:04:49.521Z,15.70
2019-05-18T07:07:18.035Z,18.50
2019-05-18T07:09:45.074Z,18.90
2019-05-18T07:12:12.156Z,18.97
2019-05-18T07:14:39.213Z,16.00
2019-05-18T07:17:06.244Z,18.80
2019-05-18T07:19:33.312Z,20.00
2019-05-18T07:22:00.340Z,18.53
2019-05-18T07:24:27.348Z,18.70
2019-05-18T07:26:54.445Z,17.13
2019-05-18T07:29:21.463Z,20.73
2019-05-18T07:31:48.476Z,21.27
2019-05-18T07:34:15.548Z,18.93
2019-05-18T07:36:42.609Z,18.87
2019-05-18T07:39:09.627Z,16.30
2019-05-18T07:41:46.276Z,18.87
2019-05-18T07:44:05.595Z,18.13
2019-05-18T07:46:32.633Z,16.17
2019-05-18T07:48:59.697Z,17.53
2019-05-18T07:51:36.582Z,18.37
2019-05-18T07:53:55.677Z,18.60
2019-05-18T07:56:22.736Z,20.50
2019-05-18T07:58:49.754Z,17.37
2019-05-18T08:01:16.769Z,18.57
2019-05-18T08:03:43.857Z,16.00
2019-05-18T08:06:10.949Z,19.37
2019-05-18T08:08:39.634Z,19.93
2019-05-18T08:11:06.730Z,12.80
2019-05-18T08:13:33.763Z,16.90
2019-05-18T08:16:00.837Z,13.23
2019-05-18T08:18:27.874Z,16.03
2019-05-18T08:20:54.908Z,16.10
2019-05-18T08:23:21.962Z,20.10
2019-05-18T08:25:49.035Z,19.25
2019-05-18T08:28:18.545Z,16.63
2019-05-18T08:30:45.574Z,18.13
2019-05-18T08:33:12.598Z,20.70
2019-05-18T08:35:39.679Z,18.50
2019-05-18T08:38:06.883Z,14.97
2019-05-18T08:40:33.964Z,15.20
2019-05-18T08:43:01.057Z,16.77
2019-05-18T08:45:28.090Z,16.97
2019-05-18T08:47:55.115Z,20.83
2019-05-18T08:50:22.258Z,15.27
2019-05-18T08:52:49.338Z,18.77
2019-05-18T08:55:16.362Z,19.10
2019-05-18T08:57:43.433Z,17.93
2019-05-18T09:00:10.846Z,21.77
2019-05-18T09:02:38.084Z,17.42
2019-05-18T09:05:05.773Z,16.30
2019-05-18T09:07:32.794Z,14.17
2019-05-18T09:09:59.846Z,15.57
2019-05-18T09:12:26.905Z,20.23
2019-05-18T09:14:53.937Z,15.10
2019-05-18T09:17:21.002Z,18.53
2019-05-18T09:19:48.049Z,21.12
2019-05-18T09:22:22.736Z,15.67
2019-05-18T09:24:44.077Z,15.47
2019-05-18T09:27:11.185Z,13.62
2019-05-18T09:29:38.211Z,13.83
2019-05-18T09:32:05.252Z,19.77
2019-05-18T09:34:32.361Z,19.52
2019-05-18T09:36:59.409Z,19.03
2019-05-18T09:39:26.526Z,20.50
2019-05-18T09:41:53.515Z,18.73
2019-05-18T09:44:20.541Z,20.27
2019-05-18T09:46:47.623Z,15.97
2019-05-18T09:49:14.680Z,13.93
2019-05-18T09:51:41.725Z,19.73
2019-05-18T09:54:08.779Z,15.80
2019-05-18T09:56:35.815Z,14.13
2019-05-18T09:59:02.890Z,17.47
2019-05-18T10:01:29.944Z,18.93
2019-05-18T10:03:56.961Z,17.33
2019-05-18T10:06:24.028Z,15.97
2019-05-18T10:08:51.140Z,12.00
2019-05-18T10:11:18.172Z,18.87
2019-05-18T10:13:45.218Z,16.93
2019-05-18T10:16:12.343Z,13.10
2019-05-18T10:18:39.382Z,15.23
2019-05-18T10:21:06.390Z,14.40
2019-05-18T10:23:33.461Z,11.40
2019-05-18T10:26:00.478Z,11.13
2019-05-18T10:28:27.557Z,9.20
2019-05-18T10:30:54.611Z,12.07
2019-05-18T10:33:21.636Z,8.28
2019-05-18T10:35:48.664Z,7.42
2019-05-18T10:38:15.711Z,9.60
2019-05-18T10:40:42.734Z,16.05
2019-05-18T10:43:09.834Z,11.63
2019-05-18T10:45:36.966Z,11.60
2019-05-18T10:48:04.114Z,12.68
2019-05-18T10:50:31.119Z,9.67
2019-05-18T10:52:58.154Z,9.07
2019-05-18T10:55:25.216Z,14.68
2019-05-18T10:57:52.236Z,11.33
2019-05-18T11:00:19.534Z,12.28
2019-05-18T11:02:46.555Z,10.67
2019-05-18T11:05:14.080Z,14.03
2019-05-18T11:07:41.126Z,11.43
2019-05-18T11:10:08.955Z,13.13
2019-05-18T11:12:35.981Z,11.40
2019-05-18T11:15:04.144Z,13.88
2019-05-18T11:17:31.178Z,9.85
2019-05-18T11:19:58.209Z,10.70
2019-05-18T11:22:25.265Z,13.60
2019-05-18T11:24:52.302Z,13.70
2019-05-18T11:27:19.475Z,8.70
2019-05-18T11:29:46.539Z,8.15
2019-05-18T11:32:13.624Z,9.33
2019-05-18T11:34:40.630Z,9.07
2019-05-18T11:37:07.682Z,12.60
2019-05-18T11:39:34.701Z,11.55
2019-05-18T11:42:01.739Z,8.18
2019-05-18T11:44:28.887Z,9.10
2019-05-18T11:46:55.910Z,8.80
2019-05-18T11:49:22.940Z,12.90
2019-05-18T11:51:50.000Z,13.30
2019-05-18T11:54:17.015Z,10.08
2019-05-18T11:56:44.155Z,7.80
2019-05-18T11:59:11.253Z,8.40
2019-05-18T12:01:38.271Z,11.00
2019-05-18T12:04:05.308Z,11.90
2019-05-18T12:06:32.416Z,11.70
2019-05-18T12:08:59.460Z,11.95
2019-05-18T12:11:26.538Z,9.80
2019-05-18T12:13:53.692Z,8.53
2019-05-18T12:16:20.725Z,12.28
2019-05-18T12:18:47.777Z,12.73
2019-05-18T12:21:14.875Z,11.03
2019-05-18T12:23:41.910Z,11.83
2019-05-18T12:26:08.964Z,12.30
2019-05-18T12:28:36.134Z,6.50
2019-05-18T12:31:03.284Z,6.65
2019-05-18T12:33:30.300Z,19.57
2019-05-18T12:35:57.342Z,25.43
2019-05-18T12:38:24.452Z,24.45
2019-05-18T12:40:51.621Z,24.03
2019-05-18T12:43:18.647Z,24.25
2019-05-18T12:45:45.685Z,27.10
2019-05-18T12:48:12.734Z,27.17
2019-05-18T12:50:39.769Z,25.92
2019-05-18T12:53:06.796Z,26.07
2019-05-18T12:55:33.852Z,28.13
2019-05-18T12:58:00.893Z,25.80
2019-05-18T13:00:28.059Z,27.70
2019-05-18T13:02:55.067Z,26.67
2019-05-18T13:05:22.092Z,21.70
2019-05-18T13:07:49.195Z,26.53
2019-05-18T13:10:16.745Z,27.17
2019-05-18T13:12:43.771Z,27.77
2019-05-18T13:15:11.312Z,26.83
2019-05-18T13:17:38.398Z,26.67
2019-05-18T13:20:06.198Z,26.70
2019-05-18T13:22:33.221Z,23.02
2019-05-18T13:25:00.296Z,26.60
2019-05-18T13:27:38.722Z,23.27
2019-05-18T13:29:56.383Z,24.97
2019-05-18T13:32:23.447Z,24.77
2019-05-18T13:34:50.503Z,22.80
2019-05-18T13:37:17.599Z,22.87
2019-05-18T13:39:44.663Z,22.10
2019-05-18T13:42:11.709Z,22.97
2019-05-18T13:44:38.749Z,22.23
2019-05-18T13:47:05.834Z,21.83
2019-05-18T13:49:32.851Z,21.93
2019-05-18T13:51:59.886Z,21.67
2019-05-18T13:54:26.954Z,19.70
2019-05-18T13:56:54.023Z,20.57
2019-05-18T13:59:21.064Z,20.90
2019-05-18T14:01:48.132Z,20.20
2019-05-18T14:04:15.188Z,19.37
2019-05-18T14:06:42.222Z,20.10
2019-05-18T14:09:09.251Z,21.93
2019-05-18T14:11:36.281Z,20.70
2019-05-18T14:14:03.473Z,17.93
2019-05-18T14:16:30.501Z,19.87
2019-05-18T14:18:57.593Z,22.60
2019-05-18T14:21:24.615Z,22.67
2019-05-18T14:23:51.653Z,22.20
2019-05-18T14:26:18.702Z,22.40
2019-05-18T14:28:45.797Z,19.85
2019-05-18T14:31:12.948Z,20.27
2019-05-18T14:33:40.013Z,20.17
2019-05-18T14:36:07.136Z,20.30
2019-05-18T14:38:34.158Z,21.02
2019-05-18T14:41:01.235Z,20.83
2019-05-18T14:43:28.261Z,19.60
2019-05-18T14:45:55.347Z,18.40
2019-05-18T14:48:22.413Z,19.10
2019-05-18T14:50:49.419Z,19.50
2019-05-18T14:53:16.468Z,16.27
2019-05-18T14:55:43.567Z,17.32
2019-05-18T14:58:10.592Z,18.37
2019-05-18T15:00:37.709Z,15.40
2019-05-18T15:03:04.774Z,17.70
2019-05-18T15:05:31.797Z,16.27
2019-05-18T15:07:58.874Z,17.23
2019-05-18T15:10:25.919Z,17.12
2019-05-18T15:12:52.949Z,17.07
2019-05-18T15:15:20.844Z,18.33
2019-05-18T15:17:47.906Z,19.87
2019-05-18T15:20:16.214Z,20.73
2019-05-18T15:22:43.254Z,21.80
2019-05-18T15:25:10.575Z,21.07
2019-05-18T15:27:37.654Z,23.18
2019-05-18T15:30:04.884Z,21.60
2019-05-18T15:32:31.932Z,21.60
2019-05-18T15:34:58.978Z,21.55
2019-05-18T15:37:26.087Z,20.50
2019-05-18T15:39:53.112Z,21.77
2019-05-18T15:42:20.183Z,22.93
2019-05-18T15:44:47.215Z,22.07
2019-05-18T15:47:14.232Z,23.67
2019-05-18T15:49:41.244Z,22.80
2019-05-18T15:52:08.338Z,23.23
2019-05-18T15:54:36.294Z,21.52
2019-05-18T15:57:03.603Z,20.87
2019-05-18T15:59:30.679Z,21.20
2019-05-18T16:01:57.685Z,21.23
2019-05-18T16:04:24.717Z,22.53
2019-05-18T16:06:51.768Z,20.50
2019-05-18T16:09:18.864Z,20.07
2019-05-18T16:11:45.871Z,19.17
2019-05-18T16:14:12.908Z,20.52
2019-05-18T16:16:39.928Z,19.00
2019-05-18T16:19:06.945Z,21.17
2019-05-18T16:21:34.167Z,19.77
2019-05-18T16:24:01.226Z,19.50
2019-05-18T16:26:28.272Z,20.17
2019-05-18T16:28:55.414Z,21.10
2019-05-18T16:31:22.475Z,19.45
2019-05-18T16:33:49.510Z,21.00
2019-05-18T16:36:16.694Z,20.08
2019-05-18T16:38:43.861Z,18.73
2019-05-18T16:41:10.880Z,20.83
2019-05-18T16:43:37.925Z,20.00
2019-05-18T16:46:04.983Z,20.53
2019-05-18T16:48:32.081Z,19.90
2019-05-18T16:50:59.118Z,20.33
2019-05-18T16:53:26.148Z,19.50
2019-05-18T16:55:53.187Z,19.17
2019-05-18T16:58:20.245Z,20.20
2019-05-18T17:00:47.517Z,18.73
2019-05-18T17:03:14.538Z,18.67
2019-05-18T17:05:41.607Z,17.57
2019-05-18T17:08:08.631Z,17.90
2019-05-18T17:10:35.648Z,17.70
2019-05-18T17:13:02.686Z,17.57
2019-05-18T17:15:29.731Z,15.80
2019-05-18T17:17:56.764Z,15.10
2019-05-18T17:20:23.813Z,15.20
2019-05-18T17:22:50.862Z,16.47
2019-05-18T17:25:17.867Z,16.77
2019-05-18T17:27:44.959Z,19.27
2019-05-18T17:30:12.521Z,21.90
2019-05-18T17:32:39.534Z,21.07
2019-05-18T17:35:07.270Z,20.07
2019-05-18T17:37:34.291Z,19.10
2019-05-18T17:40:01.301Z,19.97
2019-05-18T17:42:28.459Z,20.03
2019-05-18T17:44:55.479Z,18.20
2019-05-18T17:47:22.510Z,19.20
2019-05-18T17:49:49.570Z,17.60
2019-05-18T17:52:16.625Z,18.83
2019-05-18T17:54:43.650Z,18.80
2019-05-18T17:57:10.730Z,17.40
2019-05-18T17:59:37.757Z,19.57
2019-05-18T18:02:04.758Z,18.40
2019-05-18T18:04:31.785Z,17.67
2019-05-18T18:06:58.835Z,16.83
2019-05-18T18:09:25.854Z,17.43
2019-05-18T18:11:52.912Z,18.20
2019-05-18T18:14:19.921Z,17.77
2019-05-18T18:16:46.948Z,17.47
2019-05-18T18:19:13.996Z,16.87
2019-05-18T18:21:41.002Z,17.80
2019-05-18T18:24:08.104Z,18.37
2019-05-18T18:26:35.150Z,18.20
2019-05-18T18:29:04.256Z,19.13
2019-05-18T18:31:31.180Z,20.23
2019-05-18T18:33:58.205Z,19.77
2019-05-18T18:36:25.219Z,21.20
2019-05-18T18:38:52.237Z,20.87
2019-05-18T18:41:19.332Z,21.63
2019-05-18T18:43:46.336Z,20.03
2019-05-18T18:46:13.391Z,22.30
2019-05-18T18:48:40.411Z,23.17
2019-05-18T18:51:07.473Z,21.97
2019-05-18T18:53:34.491Z,17.63
2019-05-18T18:56:01.522Z,21.70
2019-05-18T18:58:28.531Z,19.20
2019-05-18T19:00:55.586Z,25.03
2019-05-18T19:03:22.619Z,23.37
2019-05-18T19:05:49.650Z,20.60
2019-05-18T19:08:16.680Z,20.77
2019-05-18T19:10:43.707Z,21.33
2019-05-18T19:13:10.722Z,21.77
2019-05-18T19:15:37.798Z,20.60
2019-05-18T19:18:04.819Z,20.10
2019-05-18T19:20:31.843Z,20.70
2019-05-18T19:22:58.878Z,21.60
2019-05-18T19:25:25.952Z,22.37
2019-05-18T19:27:55.341Z,23.37
2019-05-18T19:30:21.930Z,23.50
2019-05-18T19:32:48.961Z,23.60
2019-05-18T19:35:15.971Z,24.47
2019-05-18T19:37:43.010Z,21.90
2019-05-18T19:40:10.219Z,20.43
2019-05-18T19:42:37.292Z,25.07
2019-05-18T19:45:04.709Z,24.23
2019-05-18T19:47:31.714Z,22.80
2019-05-18T19:49:58.755Z,25.13
2019-05-18T19:52:25.821Z,22.93
2019-05-18T19:54:52.850Z,21.97
2019-05-18T19:57:19.942Z,25.90
2019-05-18T19:59:46.982Z,26.73
2019-05-18T20:02:18.091Z,25.00
2019-05-18T20:04:42.945Z,25.27
2019-05-18T20:07:09.983Z,23.60
2019-05-18T20:09:37.011Z,23.37
2019-05-18T20:12:04.035Z,23.43
2019-05-18T20:14:31.078Z,24.30
2019-05-18T20:16:58.121Z,26.30
2019-05-18T20:19:38.235Z,25.13
2019-05-18T20:21:54.112Z,23.27
2019-05-18T20:24:21.131Z,22.07
2019-05-18T20:26:48.271Z,20.33
2019-05-18T20:29:15.350Z,22.03
2019-05-18T20:31:42.379Z,21.13
2019-05-18T20:34:09.456Z,23.97
2019-05-18T20:36:36.465Z,26.87
2019-05-18T20:39:04.545Z,28.10
2019-05-18T20:41:31.593Z,25.17
2019-05-18T20:43:58.605Z,26.63
2019-05-18T20:46:25.624Z,26.03
2019-05-18T20:48:52.932Z,24.33
2019-05-18T20:51:20.042Z,29.60
2019-05-18T20:53:47.171Z,28.97
2019-05-18T20:56:14.243Z,28.27
2019-05-18T20:58:41.305Z,26.03
2019-05-18T21:01:08.295Z,24.97
2019-05-18T21:03:35.351Z,26.63
2019-05-18T21:06:02.387Z,28.83
2019-05-18T21:08:29.445Z,26.63
2019-05-18T21:10:56.515Z,27.70
2019-05-18T21:13:23.534Z,28.17
2019-05-18T21:15:50.555Z,26.80
2019-05-18T21:18:17.616Z,29.20
2019-05-18T21:20:44.613Z,28.33
2019-05-18T21:23:11.649Z,28.93
2019-05-18T21:25:38.719Z,28.57
2019-05-18T21:28:05.812Z,30.23
2019-05-18T21:30:32.840Z,32.63
2019-05-18T21:32:59.931Z,31.97
2019-05-18T21:35:26.935Z,32.53
2019-05-18T21:37:53.959Z,29.80
2019-05-18T21:40:21.048Z,27.90
2019-05-18T21:42:48.073Z,25.20
2019-05-18T21:45:15.204Z,25.07
2019-05-18T21:47:42.264Z,27.37
2019-05-18T21:50:09.402Z,29.30
2019-05-18T21:52:36.466Z,25.47
2019-05-18T21:55:05.553Z,29.40
2019-05-18T21:57:32.571Z,29.03
2019-05-18T21:59:59.609Z,32.67
2019-05-18T22:02:26.637Z,34.00
2019-05-18T22:04:53.625Z,30.70
2019-05-18T22:07:20.692Z,28.67
2019-05-18T22:09:47.708Z,32.40
2019-05-18T22:12:14.711Z,33.50
2019-05-18T22:14:41.782Z,32.00
2019-05-18T22:17:08.808Z,26.70
2019-05-18T22:19:35.829Z,26.87
2019-05-18T22:22:02.869Z,28.87
2019-05-18T22:24:29.918Z,29.73
2019-05-18T22:26:56.918Z,30.67
2019-05-18T22:29:24.032Z,29.87
2019-05-18T22:31:51.056Z,34.47
2019-05-18T22:34:18.071Z,31.03
2019-05-18T22:36:45.115Z,30.10
2019-05-18T22:39:12.126Z,27.93
2019-05-18T22:41:39.133Z,29.40
2019-05-18T22:44:06.198Z,35.03
2019-05-18T22:46:33.363Z,30.20
2019-05-18T22:49:00.397Z,37.30
2019-05-18T22:51:27.453Z,27.97
2019-05-18T22:53:54.464Z,30.20
2019-05-18T22:56:21.486Z,30.97
2019-05-18T22:58:48.531Z,29.77
2019-05-18T23:01:15.559Z,29.60
2019-05-18T23:03:42.560Z,29.00
2019-05-18T23:06:09.599Z,30.90
2019-05-18T23:08:36.618Z,35.20
2019-05-18T23:11:03.658Z,32.60
2019-05-18T23:13:30.686Z,33.37
2019-05-18T23:15:57.678Z,35.77
2019-05-18T23:18:24.743Z,32.13
2019-05-18T23:20:51.771Z,32.77
2019-05-18T23:23:18.789Z,32.47
2019-05-18T23:25:45.843Z,30.23
2019-05-18T23:28:13.088Z,31.93
2019-05-18T23:30:40.153Z,34.07
2019-05-18T23:33:07.210Z,33.60
2019-05-18T23:35:34.261Z,33.67
2019-05-18T23:38:01.282Z,33.07
2019-05-18T23:40:28.325Z,31.77
2019-05-18T23:42:55.388Z,34.13
2019-05-18T23:45:22.413Z,31.60
2019-05-18T23:47:49.575Z,33.90
2019-05-18T23:50:16.707Z,34.03
2019-05-18T23:52:43.763Z,30.50
2019-05-18T23:55:11.086Z,33.37
2019-05-18T23:57:38.092Z,34.03
